createdAt,value
2023-03-04T00:00:20.820Z,3.30
2023-03-04T00:05:23.027Z,4.53
2023-03-04T00:10:25.312Z,3.10
2023-03-04T00:15:27.585Z,6.37
2023-03-04T00:20:29.837Z,2.67
2023-03-04T00:25:32.204Z,4.77
2023-03-04T00:30:34.527Z,4.20
2023-03-04T00:35:37.003Z,2.43
2023-03-04T00:40:39.338Z,5.37
2023-03-04T00:45:41.673Z,2.70
2023-03-04T00:50:44.545Z,4.43
2023-03-04T00:55:46.705Z,5.80
2023-03-04T01:00:48.997Z,6.17
2023-03-04T01:05:51.355Z,3.23
2023-03-04T01:10:53.545Z,5.60
2023-03-04T01:15:56.286Z,3.23
2023-03-04T01:20:58.607Z,3.00
2023-03-04T01:26:00.951Z,5.93
2023-03-04T01:31:04.295Z,3.13
2023-03-04T01:36:07.017Z,4.63
2023-03-04T01:41:12.634Z,4.23
2023-03-04T01:46:15.426Z,3.83
2023-03-04T01:51:19.524Z,3.73
2023-03-04T01:56:39.598Z,6.73
2023-03-04T02:01:53.610Z,5.73
2023-03-04T02:12:11.223Z,4.50
2023-03-04T02:17:13.654Z,7.80
2023-03-04T02:22:15.941Z,7.30
2023-03-04T02:27:19.453Z,5.67
2023-03-04T02:37:38.244Z,4.63
2023-03-04T02:42:40.905Z,4.63
2023-03-04T02:47:43.135Z,5.37
2023-03-04T02:52:45.978Z,4.43
2023-03-04T02:57:48.278Z,3.50
2023-03-04T03:02:50.926Z,3.40
2023-03-04T03:07:53.610Z,4.20
2023-03-04T03:12:55.996Z,3.33
2023-03-04T03:17:58.609Z,5.00
2023-03-04T03:23:00.762Z,4.93
2023-03-04T03:28:02.980Z,4.93
2023-03-04T03:33:14.424Z,5.90
2023-03-04T03:38:17.459Z,7.20
2023-03-04T03:43:20.113Z,3.50
2023-03-04T03:48:22.383Z,3.93
2023-03-04T03:53:24.635Z,3.67
2023-03-04T03:58:27.387Z,3.43
2023-03-04T04:03:29.825Z,4.67
2023-03-04T04:08:33.642Z,4.90
2023-03-04T04:13:38.072Z,3.00
2023-03-04T04:18:41.384Z,7.93
2023-03-04T04:23:43.813Z,8.40
2023-03-04T04:28:46.060Z,4.67
2023-03-04T04:33:48.236Z,4.40
2023-03-04T04:38:50.454Z,2.90
2023-03-04T04:43:52.789Z,4.17
2023-03-04T04:48:55.013Z,3.40
2023-03-04T04:53:57.356Z,3.17
2023-03-04T04:59:02.091Z,3.50
2023-03-04T05:04:04.704Z,4.37
2023-03-04T05:09:07.438Z,5.17
2023-03-04T05:14:09.626Z,5.03
2023-03-04T05:19:11.904Z,8.57
2023-03-04T05:24:15.445Z,6.40
2023-03-04T05:29:17.730Z,5.23
2023-03-04T05:34:20.136Z,4.53
2023-03-04T05:44:31.023Z,3.83
2023-03-04T05:49:33.395Z,5.33
2023-03-04T05:54:35.659Z,4.00
2023-03-04T05:59:39.785Z,6.10
2023-03-04T06:04:42.155Z,5.30
2023-03-04T06:09:48.534Z,3.80
2023-03-04T06:14:51.381Z,2.70
2023-03-04T06:19:53.778Z,3.53
2023-03-04T06:24:56.019Z,3.17
2023-03-04T06:29:58.318Z,6.63
2023-03-04T06:35:00.573Z,3.60
2023-03-04T06:40:16.396Z,3.20
2023-03-04T06:45:24.984Z,2.83
2023-03-04T06:50:27.391Z,3.77
2023-03-04T06:55:29.686Z,3.53
2023-03-04T07:00:32.065Z,5.50
2023-03-04T07:05:34.383Z,4.40
2023-03-04T07:10:37.088Z,4.13
2023-03-04T07:15:39.471Z,7.03
2023-03-04T07:20:41.763Z,7.07
2023-03-04T07:25:44.057Z,6.80
2023-03-04T07:30:47.106Z,5.67
2023-03-04T07:35:49.376Z,5.23
2023-03-04T07:40:58.610Z,4.60
2023-03-04T07:46:07.364Z,6.80
2023-03-04T07:51:12.657Z,6.80
2023-03-04T07:56:27.390Z,7.73
2023-03-04T08:01:31.128Z,6.33
2023-03-04T08:06:34.380Z,7.20
2023-03-04T08:11:37.914Z,7.97
2023-03-04T08:16:40.350Z,6.67
2023-03-04T08:21:42.691Z,7.20
2023-03-04T08:26:48.152Z,5.93
2023-03-04T08:31:51.673Z,6.17
2023-03-04T08:36:54.288Z,7.33
2023-03-04T08:41:56.565Z,8.60
2023-03-04T08:46:59.013Z,6.43
2023-03-04T08:52:01.350Z,6.00
2023-03-04T08:57:04.818Z,6.23
2023-03-04T09:02:07.549Z,4.67
2023-03-04T09:07:10.176Z,4.43
2023-03-04T09:12:12.707Z,5.00
2023-03-04T09:17:15.157Z,4.43
2023-03-04T09:22:17.568Z,5.07
2023-03-04T09:27:19.912Z,4.63
2023-03-04T09:32:22.283Z,6.27
2023-03-04T09:37:24.612Z,4.33
2023-03-04T09:42:42.556Z,3.27
2023-03-04T09:47:45.336Z,4.57
2023-03-04T09:53:04.203Z,4.70
2023-03-04T10:04:21.528Z,3.70
2023-03-04T10:09:28.380Z,3.00
2023-03-04T10:20:30.291Z,5.17
2023-03-04T10:25:33.441Z,3.93
2023-03-04T10:30:57.989Z,3.63
2023-03-04T10:36:00.331Z,1.97
2023-03-04T10:41:21.844Z,4.03
2023-03-04T10:46:25.426Z,2.97
2023-03-04T10:51:30.217Z,3.60
2023-03-04T10:56:43.092Z,9.60
2023-03-04T11:01:45.353Z,2.27
2023-03-04T11:06:49.253Z,1.77
2023-03-04T11:11:55.380Z,2.90
2023-03-04T11:17:02.460Z,2.83
2023-03-04T11:22:05.145Z,2.77
2023-03-04T11:27:15.796Z,2.97
2023-03-04T11:32:23.390Z,2.00
2023-03-04T11:37:46.191Z,2.23
2023-03-04T11:42:49.875Z,1.93
2023-03-04T11:48:13.353Z,2.47
2023-03-04T11:53:27.369Z,4.03
2023-03-04T11:58:44.600Z,4.00
2023-03-04T12:04:05.212Z,1.70
2023-03-04T12:09:26.668Z,3.70
2023-03-04T12:14:32.072Z,2.90
2023-03-04T12:19:48.636Z,5.70
2023-03-04T12:24:58.848Z,3.13
2023-03-04T12:36:17.020Z,5.77
2023-03-04T12:41:52.904Z,3.97
2023-03-04T12:47:18.186Z,4.47
2023-03-04T12:52:58.634Z,3.80
2023-03-04T12:58:01.473Z,5.70
2023-03-04T13:03:29.281Z,5.63
2023-03-04T13:08:40.740Z,7.27
2023-03-04T13:13:43.643Z,5.97
2023-03-04T13:18:45.996Z,8.40
2023-03-04T13:23:48.398Z,7.47
2023-03-04T13:28:57.282Z,8.37
2023-03-04T13:34:01.053Z,4.40
2023-03-04T13:39:28.184Z,5.33
2023-03-04T13:44:45.541Z,6.30
2023-03-04T13:49:47.875Z,6.23
2023-03-04T13:54:50.289Z,4.50
2023-03-04T13:59:56.513Z,8.30
2023-03-04T14:05:00.821Z,6.73
2023-03-04T14:10:14.332Z,5.57
2023-03-04T14:15:21.919Z,8.40
2023-03-04T14:20:31.610Z,8.13
2023-03-04T14:30:43.694Z,5.43
2023-03-04T14:35:48.826Z,6.30
2023-03-04T14:41:08.245Z,6.13
2023-03-04T14:46:14.136Z,5.33
2023-03-04T14:51:52.799Z,7.97
2023-03-04T14:56:55.343Z,5.17
2023-03-04T15:02:33.558Z,6.23
2023-03-04T15:07:37.338Z,8.10
2023-03-04T15:12:39.590Z,13.83
2023-03-04T15:17:42.899Z,7.57
2023-03-04T15:22:45.494Z,8.57
2023-03-04T15:27:48.780Z,6.97
2023-03-04T15:32:51.037Z,6.20
2023-03-04T15:37:55.148Z,5.37
2023-03-04T15:43:00.409Z,8.83
2023-03-04T15:54:00.241Z,6.67
2023-03-04T15:59:13.672Z,8.10
2023-03-04T16:04:17.343Z,5.50
2023-03-04T16:09:21.493Z,8.10
2023-03-04T16:14:23.800Z,8.10
2023-03-04T16:19:26.079Z,6.23
2023-03-04T16:24:30.585Z,9.00
2023-03-04T16:29:32.825Z,8.87
2023-03-04T16:34:36.323Z,6.87
2023-03-04T16:39:39.211Z,6.27
2023-03-04T16:44:43.410Z,7.03
2023-03-04T16:49:48.513Z,8.77
2023-03-04T16:54:51.272Z,8.23
2023-03-04T16:59:55.246Z,6.23
2023-03-04T17:04:59.595Z,9.60
2023-03-04T17:10:01.849Z,7.57
2023-03-04T17:15:08.071Z,7.47
2023-03-04T17:20:14.041Z,5.17
2023-03-04T17:25:29.721Z,5.00
2023-03-04T17:30:40.889Z,2.90
2023-03-04T17:35:43.426Z,3.73
2023-03-04T17:40:47.567Z,1.20
2023-03-04T17:45:49.868Z,1.30
2023-03-04T17:50:52.807Z,1.10
2023-03-04T17:56:03.286Z,2.37
2023-03-04T18:01:13.565Z,2.47
2023-03-04T18:06:17.366Z,2.77
2023-03-04T18:11:21.957Z,1.23
2023-03-04T18:16:26.983Z,1.80
2023-03-04T18:21:33.944Z,0.90
2023-03-04T18:26:36.414Z,2.70
2023-03-04T18:31:38.760Z,1.20
2023-03-04T18:36:41.304Z,0.43
2023-03-04T18:41:57.578Z,1.43
2023-03-04T18:47:00.204Z,1.83
2023-03-04T18:52:02.426Z,1.43
2023-03-04T18:57:09.535Z,2.27
2023-03-04T19:02:25.744Z,0.67
2023-03-04T19:07:28.696Z,2.77
2023-03-04T19:12:34.284Z,1.93
2023-03-04T19:17:39.848Z,0.97
2023-03-04T19:22:42.934Z,1.37
2023-03-04T19:27:45.572Z,0.60
2023-03-04T19:32:48.130Z,0.40
2023-03-04T19:37:50.580Z,0.70
2023-03-04T19:42:58.650Z,0.60
2023-03-04T19:48:03.274Z,0.70
2023-03-04T19:53:05.509Z,0.40
2023-03-04T19:58:07.763Z,0.53
2023-03-04T20:03:10.040Z,0.40
2023-03-04T20:08:12.257Z,0.97
2023-03-04T20:13:14.516Z,0.67
2023-03-04T20:18:16.803Z,0.90
2023-03-04T20:23:20.565Z,1.07
2023-03-04T20:28:23.613Z,0.40
2023-03-04T20:33:25.841Z,0.60
2023-03-04T20:38:28.162Z,0.33
2023-03-04T20:43:31.478Z,0.63
2023-03-04T20:48:34.108Z,1.50
2023-03-04T20:53:36.383Z,0.30
2023-03-04T20:58:38.722Z,0.43
2023-03-04T21:03:42.407Z,0.40
2023-03-04T21:08:45.133Z,0.80
2023-03-04T21:13:54.185Z,1.13
2023-03-04T21:18:56.608Z,0.30
2023-03-04T21:24:00.717Z,0.93
2023-03-04T21:29:06.069Z,0.40
2023-03-04T21:34:18.271Z,0.30
2023-03-04T21:39:22.462Z,0.60
2023-03-04T21:44:28.493Z,1.27
2023-03-04T21:49:31.085Z,2.37
2023-03-04T21:54:33.434Z,0.50
2023-03-04T21:59:35.837Z,0.37
2023-03-04T22:04:38.085Z,1.33
2023-03-04T22:09:40.517Z,0.50
2023-03-04T22:14:42.682Z,0.50
2023-03-04T22:19:44.979Z,1.03
2023-03-04T22:24:47.170Z,0.73
2023-03-04T22:29:49.449Z,0.53
2023-03-04T22:34:51.592Z,0.67
2023-03-04T22:39:53.860Z,0.87
2023-03-04T22:44:56.318Z,0.80
2023-03-04T22:49:58.528Z,1.27
2023-03-04T22:55:00.804Z,0.93
2023-03-04T23:00:15.082Z,0.80
2023-03-04T23:05:18.908Z,0.80
2023-03-04T23:10:23.305Z,1.57
2023-03-04T23:15:25.565Z,1.23
2023-03-04T23:20:27.863Z,0.83
2023-03-04T23:25:30.043Z,0.87
2023-03-04T23:30:34.876Z,1.83
2023-03-04T23:35:37.159Z,2.60
2023-03-04T23:40:39.709Z,1.13
2023-03-04T23:45:41.943Z,1.37
2023-03-04T23:50:51.178Z,0.93
2023-03-04T23:55:53.563Z,1.55
